Indian Creek, Texas
Current Conditions -  °F | °C
As of 7:15 AM on Saturday 22 Nov 2014 (Local Time) from KBWD Reporting Station
Overcast Overcast  
Wind Chill: 64°   Ceiling: 800
Heat Index: 64°   Visibility: 10mi
Dew Point: 63°   Wind: 9mph
Humidity: 94%   Direction: 130°SE
Pressure: 29.98"   Gusts: NA
Location:  31.6193°N, 98.9922°W
Report Text: KBWD 221315Z AUTO 13008KT 10SM BKN008 BKN017 OVC036 18/17 A2998 RMK AO2
Loading
Personal Weather Stations






























Interactive Weather Map New forecast layout! Learn more

10-Day Weather Forecast

Advertisements
Track Severe Weather on mobile